Time;durP1;ratioP1;P1;durP2;ratioP2;P2;SDS_P1;SDS_P2;PMS_P1;PMS_P2;Temp;Humidity;BMP_temperature;BMP_pressure;BME280_temperature;BME280_humidity;BME280_pressure;Samples;Min_cycle;Max_cycle;Signal;HPM_P1;HPM_P2
2024/02/01 00:00:37;;;;;;;10.68;7.05;;;21.60;99.90;;;;;;4915741;29;20488;-61
2024/02/01 00:03:03;;;;;;;11.20;7.38;;;21.50;99.90;;;;;;4916781;29;20414;-61
2024/02/01 00:05:29;;;;;;;11.60;7.28;;;21.60;99.90;;;;;;4916691;29;20059;-61
2024/02/01 00:07:55;;;;;;;10.65;6.78;;;21.60;99.90;;;;;;4914814;29;20032;-61
2024/02/01 00:10:21;;;;;;;11.95;7.35;;;21.50;99.90;;;;;;4916932;29;20103;-61
2024/02/01 00:12:48;;;;;;;12.13;7.57;;;21.50;99.90;;;;;;4915066;29;20444;-62
2024/02/01 00:15:14;;;;;;;10.13;7.38;;;21.50;99.90;;;;;;4919759;29;20441;-61
2024/02/01 00:17:40;;;;;;;13.35;7.00;;;21.60;99.90;;;;;;4923495;29;20043;-61
2024/02/01 00:20:07;;;;;;;13.77;6.65;;;21.50;99.90;;;;;;4926055;29;20027;-61
2024/02/01 00:22:33;;;;;;;11.90;7.57;;;21.50;99.90;;;;;;4916763;29;20036;-61
2024/02/01 00:24:59;;;;;;;11.18;7.53;;;21.50;99.90;;;;;;4915611;29;20024;-61
2024/02/01 00:27:25;;;;;;;10.60;7.57;;;21.50;99.90;;;;;;4914474;29;20024;-61
2024/02/01 00:29:51;;;;;;;13.70;7.60;;;21.50;99.90;;;;;;4916164;29;20354;-61
2024/02/01 00:32:17;;;;;;;12.50;7.03;;;21.50;99.90;;;;;;4916464;29;20043;-61
2024/02/01 00:34:44;;;;;;;15.75;7.32;;;21.50;99.90;;;;;;4916520;29;20112;-62
2024/02/01 00:37:10;;;;;;;12.65;7.72;;;21.50;99.90;;;;;;4916326;29;20144;-61
2024/02/01 00:39:36;;;;;;;14.88;7.25;;;21.50;99.90;;;;;;4914119;29;20047;-61
2024/02/01 00:42:02;;;;;;;13.65;7.38;;;21.50;99.90;;;;;;4916337;29;20031;-61
2024/02/01 00:44:28;;;;;;;11.88;7.40;;;21.50;99.90;;;;;;4916315;29;20028;-62
2024/02/01 00:46:53;;;;;;;14.73;7.95;;;21.50;99.90;;;;;;4916010;29;20020;-61
2024/02/01 00:49:19;;;;;;;11.30;6.85;;;21.50;99.90;;;;;;4926209;29;20035;-62
2024/02/01 00:51:45;;;;;;;13.82;7.82;;;21.50;99.90;;;;;;4921078;29;20039;-62
2024/02/01 00:54:11;;;;;;;14.00;8.23;;;21.50;99.90;;;;;;4916226;29;20465;-62
2024/02/01 00:56:36;;;;;;;12.15;7.80;;;21.50;99.90;;;;;;4915817;29;20311;-61
2024/02/01 00:59:02;;;;;;;12.15;7.20;;;21.50;99.90;;;;;;4908249;29;20039;-66
2024/02/01 01:01:28;;;;;;;13.27;6.72;;;21.50;99.90;;;;;;4915960;29;20048;-61
2024/02/01 01:03:55;;;;;;;12.27;7.45;;;21.50;99.90;;;;;;4915797;29;20499;-60
2024/02/01 01:06:21;;;;;;;13.75;7.32;;;21.50;99.90;;;;;;4898265;29;20021;-63
2024/02/01 01:08:47;;;;;;;13.50;6.82;;;21.50;99.90;;;;;;4925168;29;20485;-62
2024/02/01 01:11:13;;;;;;;12.85;6.88;;;21.50;99.90;;;;;;4908873;29;20029;-61
2024/02/01 01:13:39;;;;;;;11.90;7.22;;;21.50;99.90;;;;;;4897255;29;20073;-61
2024/02/01 01:16:04;;;;;;;11.70;7.50;;;21.50;99.90;;;;;;4915685;29;20039;-60
2024/02/01 01:18:30;;;;;;;12.02;7.45;;;21.50;99.90;;;;;;4914510;29;20517;-63
2024/02/01 01:20:59;;;;;;;12.43;7.35;;;21.50;99.90;;;;;;4915195;29;20099;-61
2024/02/01 01:23:25;;;;;;;11.80;7.20;;;21.50;99.90;;;;;;4914459;29;20040;-61
2024/02/01 01:25:50;;;;;;;11.32;7.18;;;21.50;99.90;;;;;;4917313;29;20029;-61
2024/02/01 01:28:16;;;;;;;9.60;6.53;;;21.50;99.90;;;;;;4919190;29;20024;-62
2024/02/01 01:30:42;;;;;;;12.68;7.60;;;21.50;99.90;;;;;;4926052;29;20036;-61
2024/02/01 01:33:08;;;;;;;14.77;7.65;;;21.50;99.90;;;;;;4919440;29;20095;-62
2024/02/01 01:35:33;;;;;;;10.98;7.00;;;21.50;99.90;;;;;;4919252;29;20099;-60
2024/02/01 01:37:59;;;;;;;14.30;7.25;;;21.50;99.90;;;;;;4919024;29;20040;-59
2024/02/01 01:40:25;;;;;;;11.50;7.20;;;21.50;99.90;;;;;;4919605;29;20024;-59
2024/02/01 01:42:51;;;;;;;11.95;7.68;;;21.50;99.90;;;;;;4919282;29;20032;-65
2024/02/01 01:45:17;;;;;;;10.90;7.00;;;21.50;99.90;;;;;;4919320;29;20079;-66
2024/02/01 01:47:43;;;;;;;12.73;7.13;;;21.50;99.90;;;;;;4918887;29;20087;-63
2024/02/01 01:50:09;;;;;;;12.05;7.85;;;21.50;99.90;;;;;;4918929;29;20115;-65
2024/02/01 01:52:37;;;;;;;14.48;8.27;;;21.50;99.90;;;;;;4917803;29;20032;-61
2024/02/01 01:55:05;;;;;;;12.32;8.40;;;21.50;99.90;;;;;;4905892;29;20111;-61
2024/02/01 01:57:31;;;;;;;12.13;8.18;;;21.50;99.90;;;;;;4918662;29;20416;-61
2024/02/01 02:02:33;;;;;;;12.02;7.65;;;21.40;99.90;;;;;;4955657;29;20066;-47
2024/02/01 02:05:00;;;;;;;13.73;8.50;;;21.50;99.90;;;;;;4956973;29;20094;-46
2024/02/01 02:07:26;;;;;;;15.60;8.45;;;21.40;99.90;;;;;;4957147;29;20111;-47
2024/02/01 02:09:52;;;;;;;13.02;7.95;;;21.50;99.90;;;;;;4957301;29;20458;-47
2024/02/01 02:12:17;;;;;;;9.65;6.80;;;21.50;99.90;;;;;;4956881;29;20035;-47
2024/02/01 02:15:01;;;;;;;10.85;7.35;;;21.50;99.90;;;;;;4956606;29;20067;-47
2024/02/01 02:17:27;;;;;;;11.85;7.25;;;21.50;99.90;;;;;;4956893;29;20057;-49
2024/02/01 02:19:55;;;;;;;14.25;7.82;;;21.50;99.90;;;;;;4956720;29;20527;-47
2024/02/01 02:22:22;;;;;;;8.25;7.03;;;21.40;99.90;;;;;;4956567;29;20039;-49
2024/02/01 02:24:48;;;;;;;12.75;7.88;;;21.50;99.90;;;;;;4956757;29;20106;-48
2024/02/01 02:27:16;;;;;;;11.15;7.15;;;21.50;99.90;;;;;;4956508;29;20050;-48
2024/02/01 02:29:43;;;;;;;12.93;7.88;;;21.50;99.90;;;;;;4956483;29;20020;-48
2024/02/01 02:32:09;;;;;;;14.73;8.38;;;21.40;99.90;;;;;;4956558;29;20027;-48
2024/02/01 02:34:34;;;;;;;11.15;8.30;;;21.50;99.90;;;;;;4956575;29;20031;-50
2024/02/01 02:37:00;;;;;;;13.10;8.20;;;21.40;99.90;;;;;;4937993;29;20479;-48
2024/02/01 02:39:26;;;;;;;13.88;8.40;;;21.40;99.90;;;;;;4956569;29;20036;-48
2024/02/01 02:41:52;;;;;;;12.00;8.23;;;21.40;99.90;;;;;;4956451;29;20027;-48
2024/02/01 02:44:18;;;;;;;12.40;7.32;;;21.40;99.90;;;;;;4956103;29;20031;-48
2024/02/01 02:46:45;;;;;;;11.30;7.97;;;21.50;99.90;;;;;;4943773;29;20110;-47
2024/02/01 02:49:11;;;;;;;13.48;8.07;;;21.50;99.90;;;;;;4955900;29;20036;-47
2024/02/01 02:51:39;;;;;;;12.35;8.10;;;21.40;99.90;;;;;;4938888;29;20035;-47
2024/02/01 02:54:05;;;;;;;12.00;8.45;;;21.50;99.90;;;;;;4956284;29;20027;-48
2024/02/01 02:56:31;;;;;;;11.52;7.95;;;21.40;99.90;;;;;;4956096;29;20023;-48
2024/02/01 02:58:57;;;;;;;13.32;7.78;;;21.40;99.90;;;;;;4955623;29;20046;-47
2024/02/01 03:01:23;;;;;;;14.45;8.40;;;21.50;99.90;;;;;;4956594;29;20098;-47
2024/02/01 03:03:49;;;;;;;10.18;7.43;;;21.40;99.90;;;;;;4938599;29;20028;-47
2024/02/01 03:06:15;;;;;;;14.05;8.88;;;21.40;99.90;;;;;;4955215;29;20015;-51
2024/02/01 03:08:42;;;;;;;13.05;8.25;;;21.40;99.90;;;;;;4954751;29;20026;-49
2024/02/01 03:11:12;;;;;;;10.70;7.97;;;21.40;99.90;;;;;;4955663;29;20027;-50
2024/02/01 03:13:45;;;;;;;13.32;8.48;;;21.40;99.90;;;;;;4955713;29;20027;-50
2024/02/01 03:16:18;;;;;;;14.35;9.68;;;21.40;99.90;;;;;;4955221;29;20081;-50
2024/02/01 03:18:46;;;;;;;13.15;9.57;;;21.40;99.90;;;;;;4954409;29;20051;-50
2024/02/01 03:21:13;;;;;;;12.68;8.10;;;21.40;99.90;;;;;;4954824;29;20094;-50
2024/02/01 03:23:43;;;;;;;10.85;7.90;;;21.40;99.90;;;;;;4955602;29;20376;-50
2024/02/01 03:26:10;;;;;;;12.20;8.70;;;21.40;99.90;;;;;;4938028;29;20369;-50
2024/02/01 03:28:39;;;;;;;10.10;8.00;;;21.40;99.90;;;;;;4952695;29;20035;-50
2024/02/01 03:31:05;;;;;;;15.18;8.85;;;21.40;99.90;;;;;;4954698;29;20035;-50
2024/02/01 03:33:38;;;;;;;13.93;8.38;;;21.40;99.90;;;;;;4955399;29;20058;-50
2024/02/01 03:36:08;;;;;;;11.95;8.65;;;21.40;99.90;;;;;;4955151;29;20058;-48
2024/02/01 03:38:36;;;;;;;12.63;8.38;;;21.40;99.90;;;;;;4955454;29;20051;-51
2024/02/01 03:41:02;;;;;;;13.40;8.38;;;21.30;99.90;;;;;;4955093;29;20030;-50
2024/02/01 03:43:28;;;;;;;13.07;8.45;;;21.40;99.90;;;;;;4954122;29;20059;-50
2024/02/01 03:45:57;;;;;;;12.23;7.85;;;21.30;99.90;;;;;;4953426;29;20118;-50
2024/02/01 03:48:23;;;;;;;12.77;8.95;;;21.40;99.90;;;;;;4954865;28;20033;-50
2024/02/01 03:50:50;;;;;;;12.02;8.98;;;21.30;99.90;;;;;;4955135;29;20027;-50
2024/02/01 03:53:16;;;;;;;12.27;7.97;;;21.30;99.90;;;;;;4955371;29;20030;-50
2024/02/01 03:55:42;;;;;;;14.38;8.60;;;21.30;99.90;;;;;;4954924;29;20034;-50
2024/02/01 03:58:08;;;;;;;13.70;8.65;;;21.30;99.90;;;;;;4954699;29;20035;-50
2024/02/01 04:00:34;;;;;;;15.43;9.65;;;21.30;99.90;;;;;;4949173;23;20027;-50
2024/02/01 04:03:13;;;;;;;12.07;8.85;;;21.30;99.90;;;;;;4935943;29;20467;-50
2024/02/01 04:05:39;;;;;;;12.05;8.48;;;21.30;99.90;;;;;;4935904;29;20055;-54
2024/02/01 04:08:07;;;;;;;11.07;8.15;;;21.30;99.90;;;;;;4935948;29;20019;-51
2024/02/01 04:10:37;;;;;;;14.68;7.93;;;21.30;99.90;;;;;;4935867;29;20086;-51
2024/02/01 04:13:05;;;;;;;11.13;8.30;;;21.30;99.90;;;;;;4918891;29;20032;-51
2024/02/01 04:15:40;;;;;;;10.52;8.35;;;21.30;99.90;;;;;;4935867;29;20023;-51
2024/02/01 04:18:07;;;;;;;12.95;8.15;;;21.20;99.90;;;;;;4935664;29;20539;-51
2024/02/01 04:20:38;;;;;;;12.02;8.35;;;21.30;99.90;;;;;;4935689;29;20032;-51
2024/02/01 04:23:04;;;;;;;11.88;8.02;;;21.20;99.90;;;;;;4935675;29;20027;-51
2024/02/01 04:25:30;;;;;;;14.20;8.80;;;21.30;99.90;;;;;;4935666;29;20573;-51
2024/02/01 04:27:56;;;;;;;13.35;8.63;;;21.20;99.90;;;;;;4935597;29;20090;-50
2024/02/01 04:30:25;;;;;;;14.57;7.97;;;21.20;99.90;;;;;;4935530;29;20019;-51
2024/02/01 04:32:51;;;;;;;11.52;7.68;;;21.20;99.90;;;;;;4935542;29;20477;-51
2024/02/01 04:35:17;;;;;;;12.27;7.72;;;21.20;99.90;;;;;;4935445;29;20031;-49
2024/02/01 04:37:44;;;;;;;11.80;8.32;;;21.20;99.90;;;;;;4935756;29;20047;-51
2024/02/01 04:40:11;;;;;;;12.23;8.52;;;21.20;99.90;;;;;;4935524;29;20400;-51
2024/02/01 04:42:38;;;;;;;11.88;8.57;;;21.20;99.90;;;;;;4935345;29;20079;-51
2024/02/01 04:45:04;;;;;;;11.93;8.13;;;21.20;99.90;;;;;;4918228;29;20031;-51
2024/02/01 04:47:36;;;;;;;12.10;7.80;;;21.20;99.90;;;;;;4935264;29;20023;-51
2024/02/01 04:50:03;;;;;;;12.80;7.20;;;21.10;99.90;;;;;;4935249;29;20034;-51
2024/02/01 04:52:30;;;;;;;15.05;7.57;;;21.20;99.90;;;;;;4933704;29;20020;-53
2024/02/01 04:54:58;;;;;;;11.63;7.25;;;21.10;99.90;;;;;;4934130;29;20122;-56
2024/02/01 04:57:24;;;;;;;10.98;7.80;;;21.10;99.90;;;;;;4934276;29;20038;-51
2024/02/01 04:59:50;;;;;;;10.60;7.40;;;21.10;99.90;;;;;;4933746;29;20028;-51
2024/02/01 05:02:16;;;;;;;10.10;7.47;;;21.10;99.90;;;;;;4935139;29;20083;-51
2024/02/01 05:04:43;;;;;;;12.57;7.53;;;21.10;99.90;;;;;;4917866;29;20499;-51
2024/02/01 05:07:09;;;;;;;12.70;7.57;;;21.10;99.90;;;;;;4934986;29;20437;-51
2024/02/01 05:09:36;;;;;;;13.93;7.50;;;21.10;99.90;;;;;;4935029;29;20027;-51
2024/02/01 05:12:02;;;;;;;12.00;8.13;;;21.10;99.90;;;;;;4934861;29;20059;-51
2024/02/01 05:14:28;;;;;;;10.25;7.25;;;21.10;99.90;;;;;;4935058;29;20484;-51
2024/02/01 05:16:54;;;;;;;10.27;6.80;;;21.10;99.90;;;;;;4917978;29;20091;-51
2024/02/01 05:19:21;;;;;;;9.77;6.80;;;21.10;99.90;;;;;;4934855;29;20114;-51
2024/02/01 05:21:52;;;;;;;9.43;6.93;;;21.10;99.90;;;;;;4935328;29;20451;-51
2024/02/01 05:24:18;;;;;;;9.68;6.82;;;21.10;99.90;;;;;;4935086;29;20024;-51
2024/02/01 05:26:46;;;;;;;10.70;6.70;;;21.10;99.90;;;;;;4934971;29;20031;-51
2024/02/01 05:29:15;;;;;;;9.95;7.50;;;21.00;99.90;;;;;;4918122;29;20024;-51
2024/02/01 05:31:47;;;;;;;10.30;6.80;;;21.00;99.90;;;;;;4934798;29;20023;-51
2024/02/01 05:34:15;;;;;;;8.63;6.43;;;21.10;99.90;;;;;;4934935;29;20027;-51
2024/02/01 05:36:48;;;;;;;10.35;6.88;;;21.00;99.90;;;;;;4934838;29;20040;-51
2024/02/01 05:39:24;;;;;;;9.73;6.72;;;21.00;99.90;;;;;;4917820;29;20079;-51
2024/02/01 05:41:54;;;;;;;10.52;6.53;;;21.00;99.90;;;;;;4934918;29;20062;-51
2024/02/01 05:44:23;;;;;;;9.70;6.60;;;21.00;99.90;;;;;;4934986;29;20055;-51
2024/02/01 05:46:53;;;;;;;11.27;6.50;;;21.00;99.90;;;;;;4934811;29;20031;-51
2024/02/01 05:49:20;;;;;;;9.98;6.60;;;21.00;99.90;;;;;;4934714;29;20027;-51
2024/02/01 05:51:48;;;;;;;9.13;6.27;;;21.00;99.90;;;;;;4934782;29;20099;-51
2024/02/01 05:54:16;;;;;;;9.27;6.43;;;21.00;99.90;;;;;;4934727;29;20028;-50
2024/02/01 05:56:45;;;;;;;9.55;6.13;;;21.00;99.90;;;;;;4917585;29;20345;-51
2024/02/01 05:59:16;;;;;;;9.18;6.90;;;21.00;99.90;;;;;;4934504;29;20024;-51
2024/02/01 06:01:43;;;;;;;11.07;5.88;;;21.00;99.90;;;;;;4917281;29;20087;-51
2024/02/01 06:04:10;;;;;;;13.52;6.30;;;21.00;99.90;;;;;;4934627;29;20062;-51
2024/02/01 06:06:42;;;;;;;9.10;5.82;;;21.00;99.90;;;;;;4934554;29;20095;-51
2024/02/01 06:09:10;;;;;;;9.68;5.90;;;21.00;99.90;;;;;;4917961;29;20477;-51
2024/02/01 06:11:37;;;;;;;;;;;21.00;99.90;;;;;;4934897;29;20417;-51
2024/02/01 06:14:02;;;;;;;8.07;5.88;;;21.00;99.90;;;;;;4937891;29;19915;-50
2024/02/01 06:16:28;;;;;;;8.30;5.90;;;21.00;99.90;;;;;;4937869;29;20415;-51
2024/02/01 06:18:54;;;;;;;10.45;5.78;;;21.00;99.90;;;;;;4938003;29;20030;-51
2024/02/01 06:21:20;;;;;;;7.90;5.88;;;21.00;99.90;;;;;;4938059;29;20508;-51
2024/02/01 06:23:46;;;;;;;8.05;5.78;;;21.00;99.90;;;;;;4937727;29;20032;-51
2024/02/01 06:26:19;;;;;;;7.18;6.10;;;21.00;99.90;;;;;;4937952;29;20373;-51
2024/02/01 06:28:45;;;;;;;8.13;6.18;;;21.00;99.90;;;;;;4937810;29;20056;-51
2024/02/01 06:31:13;;;;;;;8.65;6.05;;;21.00;99.90;;;;;;4937879;29;20023;-51
2024/02/01 06:33:40;;;;;;;10.07;5.88;;;21.00;99.90;;;;;;4937737;29;20531;-50
2024/02/01 06:36:07;;;;;;;8.57;4.85;;;21.00;99.90;;;;;;4937626;29;20030;-50
2024/02/01 06:38:55;;;;;;;8.52;5.65;;;21.00;99.90;;;;;;4937652;29;20036;-52
2024/02/01 06:44:24;;;;;;;7.43;5.20;;;21.00;99.90;;;;;;4908569;29;20051;-50
2024/02/01 06:57:44;;;;;;;9.57;5.43;;;21.00;99.90;;;;;;4937257;29;20054;-50
2024/02/01 07:00:40;;;;;;;7.40;5.18;;;20.90;99.90;;;;;;4937288;29;20341;-50
2024/02/01 07:03:13;;;;;;;7.47;4.93;;;20.90;99.90;;;;;;4937071;29;20055;-50
2024/02/01 07:05:58;;;;;;;8.02;5.03;;;20.90;99.90;;;;;;4937157;29;20042;-50
2024/02/01 07:11:59;;;;;;;8.85;4.93;;;21.00;99.90;;;;;;4937146;29;20059;-51
2024/02/01 07:16:24;;;;;;;7.93;4.78;;;21.00;99.90;;;;;;4937027;29;20452;-50
2024/02/01 07:57:51;;;;;;;6.20;4.15;;;20.90;99.90;;;;;;4936323;29;20055;-51
2024/02/01 08:00:19;;;;;;;6.80;4.18;;;20.90;99.90;;;;;;4936065;29;20024;-50
2024/02/01 08:02:52;;;;;;;;;;;20.90;99.90;;;;;;4936379;29;20118;-51
2024/02/01 08:08:04;;;;;;;7.50;3.88;;;20.90;99.90;;;;;;4936238;29;20047;-50
2024/02/01 08:10:30;;;;;;;24.67;5.38;;;20.90;99.90;;;;;;4935800;29;20024;-50
2024/02/01 08:13:04;;;;;;;8.00;4.22;;;20.90;99.90;;;;;;4936003;29;20462;-50
2024/02/01 08:15:37;;;;;;;5.78;3.67;;;20.80;99.90;;;;;;4935902;29;20107;-51
2024/02/01 08:18:08;;;;;;;6.10;3.83;;;20.90;99.90;;;;;;4935809;29;20103;-51
2024/02/01 08:20:38;;;;;;;9.52;4.18;;;20.80;99.90;;;;;;4935799;29;20071;-51
2024/02/01 08:23:04;;;;;;;8.55;4.30;;;20.80;99.90;;;;;;4935845;29;20027;-50
2024/02/01 08:25:30;;;;;;;6.80;3.80;;;20.80;99.90;;;;;;4935792;29;20115;-51
2024/02/01 08:28:00;;;;;;;5.40;3.67;;;20.80;99.90;;;;;;4935848;29;20086;-50
2024/02/01 08:30:30;;;;;;;7.75;4.00;;;20.80;99.90;;;;;;4918803;29;20084;-50
2024/02/01 08:33:42;;;;;;;7.07;4.32;;;20.80;99.90;;;;;;4935620;29;20047;-50
2024/02/01 08:35:46;;;;;;;5.68;3.83;;;20.80;99.90;;;;;;4929425;29;20046;-51
2024/02/01 08:38:13;;;;;;;6.75;4.00;;;20.80;99.90;;;;;;4935433;29;20039;-50
2024/02/01 08:40:42;;;;;;;7.53;4.13;;;20.90;99.90;;;;;;4918338;29;20031;-50
2024/02/01 08:43:13;;;;;;;6.20;4.22;;;20.80;99.90;;;;;;4918389;29;20055;-50
2024/02/01 08:45:40;;;;;;;7.47;3.90;;;20.80;99.90;;;;;;4935201;29;20091;-50
2024/02/01 08:48:08;;;;;;;8.35;3.80;;;20.80;99.90;;;;;;4935417;29;20094;-50
2024/02/01 08:50:42;;;;;;;8.40;3.88;;;20.80;99.90;;;;;;4935312;29;20075;-51
2024/02/01 08:53:09;;;;;;;10.43;3.55;;;20.80;99.90;;;;;;4935295;29;20024;-49
2024/02/01 08:55:35;;;;;;;5.78;3.70;;;20.80;99.90;;;;;;4935233;29;20023;-50
2024/02/01 08:58:08;;;;;;;9.70;4.30;;;20.80;99.90;;;;;;4935140;29;20350;-48
2024/02/01 09:00:38;;;;;;;7.90;4.13;;;20.80;99.90;;;;;;4935009;29;20030;-51
2024/02/01 09:03:10;;;;;;;8.00;3.95;;;20.80;99.90;;;;;;4935147;29;20036;-49
2024/02/01 09:05:40;;;;;;;8.43;4.03;;;20.80;99.90;;;;;;4935075;29;20107;-49
2024/02/01 09:08:19;;;;;;;7.30;4.25;;;20.80;99.90;;;;;;4935072;29;20039;-50
2024/02/01 09:10:58;;;;;;;8.18;4.30;;;20.80;99.90;;;;;;4934839;29;20083;-51
2024/02/01 09:13:25;;;;;;;8.57;4.20;;;20.80;99.90;;;;;;4934941;29;20378;-50
2024/02/01 09:15:54;;;;;;;;;;;20.80;99.90;;;;;;4935333;29;20028;-50
2024/02/01 09:18:20;;;;;;;8.77;4.25;;;20.80;99.90;;;;;;4934920;29;20294;-51
2024/02/01 09:20:47;;;;;;;8.90;4.25;;;20.80;99.90;;;;;;4935090;29;20083;-50
2024/02/01 09:23:14;;;;;;;6.80;4.15;;;20.80;99.90;;;;;;4934877;29;20043;-51
2024/02/01 09:25:41;;;;;;;6.82;4.10;;;20.80;99.90;;;;;;4917784;29;20024;-49
2024/02/01 09:28:16;;;;;;;5.63;3.90;;;20.80;99.90;;;;;;4934767;29;20119;-50
2024/02/01 09:30:46;;;;;;;6.38;4.45;;;20.80;99.90;;;;;;4934815;29;20028;-51
2024/02/01 09:33:13;;;;;;;9.68;4.50;;;20.80;99.90;;;;;;4934674;29;20035;-50
2024/02/01 09:35:40;;;;;;;7.15;4.50;;;20.80;99.90;;;;;;4934862;29;20039;-50
2024/02/01 09:38:06;;;;;;;5.80;3.83;;;20.80;99.90;;;;;;4934721;29;20040;-50
2024/02/01 09:40:32;;;;;;;8.25;3.80;;;20.80;99.90;;;;;;4934970;29;20023;-49
2024/02/01 09:42:59;;;;;;;5.85;3.90;;;20.80;99.90;;;;;;4934842;29;20019;-48
2024/02/01 09:45:29;;;;;;;9.15;4.43;;;20.80;99.90;;;;;;4934766;29;20027;-49
2024/02/01 09:48:00;;;;;;;6.72;3.95;;;20.80;99.90;;;;;;4937934;29;20098;-50
2024/02/01 09:50:26;;;;;;;8.82;3.85;;;20.80;99.90;;;;;;4938428;29;20036;-49
2024/02/01 09:52:52;;;;;;;7.60;4.13;;;20.80;99.90;;;;;;4936966;29;20040;-49
2024/02/01 09:55:20;;;;;;;7.97;4.65;;;20.80;99.90;;;;;;4938183;29;20503;-51
2024/02/01 09:57:52;;;;;;;6.28;4.35;;;20.80;99.90;;;;;;4938279;29;20039;-51
2024/02/01 10:00:22;;;;;;;8.45;5.10;;;20.80;99.90;;;;;;4938172;29;20488;-50
2024/02/01 10:02:49;;;;;;;7.10;4.40;;;20.80;99.90;;;;;;4938072;29;20552;-51
2024/02/01 10:05:17;;;;;;;6.40;3.70;;;20.80;99.90;;;;;;4921138;29;20173;-51
2024/02/01 10:07:42;;;;;;;6.63;4.20;;;20.80;99.90;;;;;;4938185;29;20047;-51
2024/02/01 10:10:12;;;;;;;6.53;4.10;;;20.80;99.90;;;;;;4921069;29;20429;-51
2024/02/01 10:12:38;;;;;;;8.40;3.95;;;20.80;99.90;;;;;;4921170;29;20387;-51
2024/02/01 10:15:10;;;;;;;5.82;4.00;;;20.80;99.90;;;;;;4938090;29;20028;-51
2024/02/01 10:17:45;;;;;;;6.40;3.95;;;20.80;99.90;;;;;;4937733;29;20527;-51
2024/02/01 10:20:35;;;;;;;5.60;4.03;;;20.80;99.90;;;;;;4937680;29;20028;-51
2024/02/01 10:23:09;;;;;;;8.20;4.38;;;20.80;99.90;;;;;;4938024;29;20020;-52
2024/02/01 10:25:39;;;;;;;7.35;4.22;;;20.80;99.90;;;;;;4937864;29;20477;-51
2024/02/01 10:28:08;;;;;;;10.55;4.30;;;20.80;99.90;;;;;;4937954;29;20114;-51
2024/02/01 10:30:40;;;;;;;6.43;4.65;;;20.80;99.90;;;;;;4937886;29;20020;-51
2024/02/01 10:33:07;;;;;;;6.28;4.20;;;20.80;99.90;;;;;;4937482;29;20094;-50
2024/02/01 10:35:33;;;;;;;7.80;4.70;;;20.80;99.90;;;;;;4920413;29;20027;-50
2024/02/01 10:38:12;;;;;;;6.60;4.22;;;20.80;99.90;;;;;;4937441;29;20031;-50
2024/02/01 10:40:50;;;;;;;7.22;4.43;;;20.80;99.90;;;;;;4936155;29;20027;-51
2024/02/01 10:43:18;;;;;;;6.60;3.83;;;20.80;99.90;;;;;;4937537;29;20444;-51
2024/02/01 10:45:48;;;;;;;;;;;20.80;99.90;;;;;;4937847;29;20047;-51
2024/02/01 10:48:15;;;;;;;4.63;3.83;;;20.90;99.90;;;;;;4937384;29;19906;-52
2024/02/01 10:50:43;;;;;;;5.13;3.72;;;20.80;99.90;;;;;;4920562;29;20019;-50
2024/02/01 10:53:11;;;;;;;6.60;4.03;;;20.80;99.90;;;;;;4937235;29;20027;-52
2024/02/01 10:55:40;;;;;;;7.75;4.18;;;20.80;99.90;;;;;;4937257;29;20023;-52
2024/02/01 10:58:13;;;;;;;6.55;3.97;;;20.80;99.90;;;;;;4936582;29;20559;-51
2024/02/01 11:00:44;;;;;;;8.45;4.50;;;20.80;99.90;;;;;;4936999;29;20019;-51
2024/02/01 11:03:15;;;;;;;6.35;3.47;;;20.90;99.90;;;;;;4936948;29;20333;-50
2024/02/01 11:05:41;;;;;;;5.72;4.35;;;20.90;99.90;;;;;;4936930;29;20110;-49
2024/02/01 11:08:17;;;;;;;7.05;3.80;;;20.90;99.90;;;;;;4937011;29;20090;-49
2024/02/01 11:10:59;;;;;;;5.53;4.25;;;20.90;99.90;;;;;;4936862;29;20110;-50
2024/02/01 11:13:29;;;;;;;7.78;5.40;;;20.90;99.90;;;;;;4937024;29;20058;-51
2024/02/01 11:15:56;;;;;;;4.97;3.60;;;20.90;99.90;;;;;;4937019;29;20095;-51
2024/02/01 11:18:22;;;;;;;7.87;5.03;;;20.90;99.90;;;;;;4937015;29;20067;-51
2024/02/01 11:20:57;;;;;;;6.18;4.13;;;20.90;99.90;;;;;;4936994;29;20078;-50
2024/02/01 11:23:23;;;;;;;8.43;4.20;;;20.90;99.90;;;;;;4936234;29;20423;-50
2024/02/01 11:25:55;;;;;;;7.35;3.95;;;20.90;99.90;;;;;;4936424;29;20023;-50
2024/02/01 11:28:30;;;;;;;7.40;3.15;;;20.90;99.90;;;;;;4936540;29;20103;-51
2024/02/01 11:31:00;;;;;;;5.03;3.67;;;20.90;99.90;;;;;;4936645;29;20020;-50
2024/02/01 11:33:27;;;;;;;5.88;3.65;;;20.90;99.90;;;;;;4936102;29;20086;-49
2024/02/01 11:36:00;;;;;;;5.80;3.78;;;21.00;99.90;;;;;;4918611;29;20059;-51
2024/02/01 11:38:29;;;;;;;8.25;3.88;;;20.90;99.90;;;;;;4936105;29;20039;-51
2024/02/01 11:40:55;;;;;;;5.55;3.90;;;20.90;99.90;;;;;;4935599;29;20094;-50
2024/02/01 11:43:21;;;;;;;9.80;4.50;;;20.90;99.90;;;;;;4936331;29;20103;-49
2024/02/01 11:45:53;;;;;;;6.32;3.83;;;21.00;99.90;;;;;;4936411;29;20031;-49
2024/02/01 11:48:22;;;;;;;6.22;3.80;;;20.90;99.90;;;;;;4936402;29;20507;-50
2024/02/01 11:50:53;;;;;;;13.80;5.20;;;21.00;99.90;;;;;;4935615;29;20484;-49
2024/02/01 11:53:20;;;;;;;6.88;3.78;;;20.90;99.90;;;;;;4935572;29;20480;-48
2024/02/01 11:55:46;;;;;;;8.77;4.07;;;21.00;99.90;;;;;;4926367;29;20028;-49
2024/02/01 11:58:14;;;;;;;7.68;4.32;;;21.00;99.90;;;;;;4917200;29;20071;-50
2024/02/01 12:00:42;;;;;;;6.85;4.35;;;21.00;99.90;;;;;;4926919;29;20488;-50
2024/02/01 12:03:08;;;;;;;;;;;21.00;99.90;;;;;;4926979;29;20060;-51
2024/02/01 12:05:34;;;;;;;8.88;4.07;;;21.00;99.90;;;;;;4924931;29;19914;-50
2024/02/01 12:08:02;;;;;;;7.95;4.15;;;21.00;99.90;;;;;;4932332;29;20031;-50
2024/02/01 12:10:30;;;;;;;8.38;4.53;;;21.00;99.90;;;;;;4931484;29;20055;-48
2024/02/01 12:12:57;;;;;;;9.68;3.85;;;21.00;99.90;;;;;;4934821;29;20027;-49
2024/02/01 12:15:24;;;;;;;12.77;4.40;;;21.00;99.90;;;;;;4935555;29;20027;-48
2024/02/01 12:17:55;;;;;;;8.25;4.05;;;21.00;99.90;;;;;;4934245;29;20039;-47
2024/02/01 12:20:28;;;;;;;7.35;4.07;;;21.00;99.90;;;;;;4934717;29;20106;-48
2024/02/01 12:22:57;;;;;;;8.70;4.60;;;21.00;99.90;;;;;;4935236;29;20394;-49
2024/02/01 12:25:24;;;;;;;12.38;5.00;;;21.10;99.90;;;;;;4903019;29;20026;-51
2024/02/01 12:27:50;;;;;;;6.72;4.00;;;21.10;99.90;;;;;;4935296;29;20075;-50
2024/02/01 12:30:21;;;;;;;12.23;4.45;;;21.10;99.90;;;;;;4935396;29;20032;-49
2024/02/01 12:32:46;;;;;;;6.07;3.85;;;21.10;99.90;;;;;;4935477;29;20515;-50
2024/02/01 12:35:19;;;;;;;6.18;4.10;;;21.10;99.90;;;;;;4935550;29;20068;-50
2024/02/01 12:37:46;;;;;;;13.73;4.53;;;21.10;99.90;;;;;;4935349;29;20063;-50
2024/02/01 12:40:14;;;;;;;8.35;4.90;;;21.10;99.90;;;;;;4935609;29;20031;-48
2024/02/01 12:42:45;;;;;;;7.00;4.60;;;21.10;99.90;;;;;;4935639;29;20157;-49
2024/02/01 12:45:17;;;;;;;13.80;4.82;;;21.10;99.90;;;;;;4935884;29;20051;-50
2024/02/01 12:47:51;;;;;;;9.73;4.57;;;21.10;99.90;;;;;;4917562;29;20040;-47
2024/02/01 12:50:18;;;;;;;7.70;4.07;;;21.10;99.90;;;;;;4934397;29;20024;-47
2024/02/01 12:52:44;;;;;;;9.43;4.53;;;21.10;99.90;;;;;;4934221;29;20028;-47
2024/02/01 12:55:11;;;;;;;17.63;4.67;;;21.20;99.90;;;;;;4934333;29;20020;-46
2024/02/01 12:57:37;;;;;;;7.50;4.30;;;21.20;99.90;;;;;;4934972;29;20770;-49
2024/02/01 13:00:10;;;;;;;28.77;5.30;;;21.20;99.90;;;;;;4935323;29;20560;-50
2024/02/01 13:02:37;;;;;;;8.85;4.25;;;21.20;99.90;;;;;;4934081;29;20051;-49
2024/02/01 13:05:10;;;;;;;16.48;4.72;;;21.30;99.90;;;;;;4934540;29;20434;-48
2024/02/01 13:07:37;;;;;;;6.88;3.95;;;21.30;99.90;;;;;;4935058;29;20396;-52
2024/02/01 13:10:13;;;;;;;9.95;3.90;;;21.30;99.90;;;;;;4935131;29;20495;-51
2024/02/01 13:12:54;;;;;;;8.32;4.10;;;21.30;99.90;;;;;;4918033;29;20032;-49
2024/02/01 13:15:23;;;;;;;8.77;4.22;;;21.30;99.90;;;;;;4934859;29;20558;-51
2024/02/01 13:17:53;;;;;;;13.88;4.75;;;21.30;99.90;;;;;;4917751;29;20425;-48
2024/02/01 13:20:21;;;;;;;10.93;4.38;;;21.40;99.90;;;;;;4934867;29;20024;-49
2024/02/01 13:22:51;;;;;;;8.15;4.57;;;21.40;99.90;;;;;;4940574;29;20373;-48
2024/02/01 13:25:20;;;;;;;28.15;18.38;;;21.40;99.90;;;;;;4940767;29;20083;-50
2024/02/01 13:27:50;;;;;;;19.45;12.82;;;21.40;99.90;;;;;;4940994;29;20023;-52
2024/02/01 13:30:17;;;;;;;14.85;9.82;;;21.40;99.90;;;;;;4940388;29;20083;-50
2024/02/01 13:32:43;;;;;;;14.18;9.00;;;21.40;99.90;;;;;;4940868;29;20027;-50
2024/02/01 13:35:10;;;;;;;15.77;8.35;;;21.40;99.90;;;;;;4940481;29;20036;-51
2024/02/01 13:37:37;;;;;;;19.42;9.93;;;21.40;99.90;;;;;;4940546;29;20098;-51
2024/02/01 13:40:07;;;;;;;13.70;8.57;;;21.40;99.90;;;;;;4939436;29;20042;-49
2024/02/01 13:42:36;;;;;;;14.25;8.77;;;21.40;99.90;;;;;;4924628;29;20481;-49
2024/02/01 13:45:02;;;;;;;16.50;8.38;;;21.50;99.90;;;;;;4941132;29;20114;-49
2024/02/01 13:47:28;;;;;;;9.45;6.75;;;21.50;99.90;;;;;;4940655;29;20035;-49
2024/02/01 13:49:54;;;;;;;22.83;7.53;;;21.50;99.90;;;;;;4940565;29;20088;-48
2024/02/01 13:52:20;;;;;;;11.90;7.15;;;21.40;99.90;;;;;;4939418;29;20432;-48